createdAt,value
2023-11-01T00:01:31.836Z,11.86
2023-11-01T00:07:51.851Z,11.92
2023-11-01T00:14:13.815Z,11.94
2023-11-01T00:20:32.853Z,11.97
2023-11-01T00:26:54.776Z,11.97
2023-11-01T00:33:14.899Z,12.04
2023-11-01T00:39:36.773Z,12.02
2023-11-01T00:45:56.006Z,11.99
2023-11-01T00:52:17.859Z,11.88
2023-11-01T00:58:37.840Z,11.85
2023-11-01T01:04:59.776Z,11.78
2023-11-01T01:11:19.839Z,11.7
2023-11-01T01:17:41.873Z,11.67
2023-11-01T01:24:01.808Z,11.63
2023-11-01T01:30:23.821Z,11.59
2023-11-01T01:36:42.795Z,11.53
2023-11-01T01:43:04.827Z,11.51
2023-11-01T01:49:29.937Z,11.5
2023-11-01T01:55:45.817Z,11.49
2023-11-01T02:02:05.784Z,11.51
2023-11-01T02:08:26.867Z,11.47
2023-11-01T02:14:46.772Z,11.46
2023-11-01T02:21:07.833Z,11.45
2023-11-01T02:27:27.813Z,11.41
2023-11-01T02:33:49.814Z,11.36
2023-11-01T02:40:09.785Z,11.34
2023-11-01T02:46:30.830Z,11.32
2023-11-01T02:52:50.850Z,11.33
2023-11-01T02:59:12.789Z,11.34
2023-11-01T03:05:32.839Z,11.35
2023-11-01T03:11:54.778Z,11.37
2023-11-01T03:18:14.835Z,11.37
2023-11-01T03:24:36.799Z,11.41
2023-11-01T03:47:58.297Z,11.43
2023-11-01T03:54:17.795Z,11.42
2023-11-01T04:00:38.790Z,11.42
2023-11-01T04:06:58.813Z,11.44
2023-11-01T04:13:20.791Z,11.45
2023-11-01T04:19:40.852Z,11.45
2023-11-01T04:26:02.875Z,11.48
2023-11-01T04:32:22.821Z,11.5
2023-11-01T04:38:44.797Z,11.51
2023-11-01T04:45:03.858Z,11.53
2023-11-01T04:51:25.771Z,11.48
2023-11-01T04:57:44.820Z,11.45
2023-11-01T05:04:06.848Z,11.49
2023-11-01T05:10:25.769Z,11.48
2023-11-01T05:16:46.825Z,11.49
2023-11-01T05:23:06.832Z,11.5
2023-11-01T05:29:27.826Z,11.53
2023-11-01T05:35:47.770Z,11.54
2023-11-01T05:42:08.803Z,11.57
2023-11-01T05:48:28.817Z,11.59
2023-11-01T05:54:50.793Z,11.6
2023-11-01T06:01:10.858Z,11.64
2023-11-01T06:07:32.771Z,11.63
2023-11-01T06:13:51.777Z,11.65
2023-11-01T06:20:12.828Z,11.65
2023-11-01T06:26:32.830Z,11.7
2023-11-01T06:32:54.920Z,11.76
2023-11-01T06:39:14.841Z,11.79
2023-11-01T06:45:36.802Z,11.91
2023-11-01T06:51:56.806Z,11.97
2023-11-01T06:58:18.807Z,12.01
2023-11-01T07:04:38.837Z,12.06
2023-11-01T07:11:00.796Z,12.12
2023-11-01T07:17:19.849Z,12.18
2023-11-01T07:23:41.867Z,12.24
2023-11-01T07:30:01.777Z,12.31
2023-11-01T07:36:22.836Z,12.35
2023-11-01T07:42:42.782Z,12.36
2023-11-01T07:49:03.820Z,12.43
2023-11-01T07:55:23.822Z,12.53
2023-11-01T08:01:45.845Z,12.63
2023-11-01T08:08:05.820Z,12.73
2023-11-01T08:14:27.832Z,12.85
2023-11-01T08:20:47.891Z,12.97
2023-11-01T08:27:09.847Z,13.06
2023-11-01T08:33:29.941Z,13.18
2023-11-01T08:39:51.875Z,13.28
2023-11-01T08:46:12.874Z,13.23
2023-11-01T08:52:35.122Z,13.33
2023-11-01T08:58:55.034Z,13.35
2023-11-01T09:15:03.349Z,13.66
2023-11-01T09:21:22.783Z,13.63
2023-11-01T09:27:43.809Z,13.6
2023-11-01T09:34:03.998Z,13.62
2023-11-01T09:40:25.831Z,13.67
2023-11-01T09:46:47.074Z,13.62
2023-11-01T09:53:08.979Z,13.69
2023-11-01T09:59:28.831Z,13.83
2023-11-01T10:05:50.804Z,13.79
2023-11-01T10:12:10.958Z,13.86
2023-11-01T10:18:32.864Z,13.99
2023-11-01T10:24:52.827Z,14.13
2023-11-01T10:31:14.861Z,14.24
2023-11-01T10:37:34.834Z,14.29
2023-11-01T10:43:56.850Z,14.22
2023-11-01T10:50:16.851Z,14.15
2023-11-01T10:56:38.857Z,14.18
2023-11-01T11:02:58.933Z,14.18
2023-11-01T11:09:20.837Z,14.25
2023-11-01T11:15:40.853Z,14.36
2023-11-01T11:22:02.839Z,14.43
2023-11-01T11:28:22.809Z,14.56
2023-11-01T11:34:45.015Z,14.52
2023-11-01T11:41:04.803Z,14.54
2023-11-01T11:47:27.035Z,14.55
2023-11-01T11:53:46.810Z,14.58
2023-11-01T12:00:08.842Z,14.63
2023-11-01T12:06:28.840Z,14.66
2023-11-01T12:12:50.881Z,14.65
2023-11-01T12:19:10.815Z,14.68
2023-11-01T12:25:33.075Z,14.59
2023-11-01T12:31:53.086Z,14.63
2023-11-01T12:38:14.802Z,14.68
2023-11-01T12:44:34.932Z,14.69
2023-11-01T12:50:56.926Z,14.71
2023-11-01T12:57:17.083Z,14.63
2023-11-01T13:03:38.967Z,14.65
2023-11-01T13:09:58.788Z,14.54
2023-11-01T13:16:19.878Z,14.52
2023-11-01T13:22:39.795Z,14.46
2023-11-01T13:29:00.805Z,14.36
2023-11-01T13:35:20.844Z,14.31
2023-11-01T13:41:42.812Z,14.28
2023-11-01T13:48:02.877Z,14.2
2023-11-01T13:54:25.120Z,14.2
2023-11-01T14:00:44.911Z,14.03
2023-11-01T14:07:06.879Z,13.97
2023-11-01T14:30:46.246Z,13.84
2023-11-01T14:37:05.825Z,13.79
2023-11-01T14:43:27.823Z,13.81
2023-11-01T14:49:47.931Z,13.78
2023-11-01T14:56:09.773Z,13.75
2023-11-01T15:02:29.801Z,13.72
2023-11-01T15:08:51.817Z,13.69
2023-11-01T15:15:11.903Z,13.62
2023-11-01T15:21:35.401Z,13.59
2023-11-01T15:27:53.900Z,13.58
2023-11-01T15:34:15.799Z,13.55
2023-11-01T15:40:35.814Z,13.51
2023-11-01T15:46:57.870Z,13.52
2023-11-01T15:53:17.787Z,13.52
2023-11-01T15:59:39.961Z,13.54
2023-11-01T16:05:59.915Z,13.51
2023-11-01T16:12:21.843Z,13.51
2023-11-01T16:18:41.849Z,13.56
2023-11-01T16:25:03.814Z,13.58
2023-11-01T16:31:22.876Z,13.54
2023-11-01T16:37:44.829Z,13.55
2023-11-01T16:44:04.812Z,13.55
2023-11-01T16:50:26.858Z,13.55
2023-11-01T16:56:46.817Z,13.48
2023-11-01T17:03:09.038Z,13.43
2023-11-01T17:09:28.815Z,13.47
2023-11-01T17:15:50.807Z,13.51
2023-11-01T17:22:10.871Z,13.45
2023-11-01T17:28:34.584Z,13.52
2023-11-01T17:34:52.808Z,13.46
2023-11-01T17:41:14.829Z,13.34
2023-11-01T17:47:34.786Z,13.25
2023-11-01T17:53:55.854Z,13.15
2023-11-01T18:00:15.892Z,13.12
2023-11-01T18:06:36.810Z,13.05
2023-11-01T18:12:56.762Z,13.03
2023-11-01T18:19:18.793Z,12.97
2023-11-01T18:25:38.818Z,12.93
2023-11-01T18:32:00.773Z,12.9
2023-11-01T18:38:19.843Z,12.75
2023-11-01T18:44:41.820Z,12.66
2023-11-01T18:51:01.812Z,12.62
2023-11-01T18:57:23.813Z,12.58
2023-11-01T19:03:43.833Z,12.51
2023-11-01T19:10:05.811Z,12.4
2023-11-01T19:16:25.799Z,12.4
2023-11-01T19:22:47.854Z,12.33
2023-11-01T19:29:07.776Z,12.23
2023-11-01T19:35:29.809Z,12.16
2023-11-01T19:58:32.352Z,12.14
2023-11-01T20:04:51.785Z,12.15
2023-11-01T20:11:13.848Z,12.1
2023-11-01T20:17:33.804Z,11.97
2023-11-01T20:23:55.895Z,11.93
2023-11-01T20:30:15.911Z,11.84
2023-11-01T20:36:37.827Z,11.76
2023-11-01T20:42:57.783Z,11.76
2023-11-01T20:49:19.815Z,11.75
2023-11-01T20:55:39.830Z,11.77
2023-11-01T21:02:01.798Z,11.78
2023-11-01T21:08:21.987Z,11.87
2023-11-01T21:14:43.858Z,11.95
2023-11-01T21:21:03.983Z,12
2023-11-01T21:27:25.827Z,12.03
2023-11-01T21:33:45.877Z,11.96
2023-11-01T21:40:07.800Z,11.98
2023-11-01T21:46:27.766Z,11.96
2023-11-01T21:52:48.836Z,11.94
2023-11-01T21:59:09.218Z,11.9
2023-11-01T22:05:30.922Z,11.72
2023-11-01T22:11:50.856Z,11.67
2023-11-01T22:18:11.851Z,11.68
2023-11-01T22:24:31.814Z,11.71
2023-11-01T22:30:53.823Z,11.77
2023-11-01T22:37:13.792Z,11.8
2023-11-01T22:43:35.792Z,11.85
2023-11-01T22:49:54.991Z,11.89
2023-11-01T22:56:16.867Z,11.9
2023-11-01T23:20:30.816Z,11.86
2023-11-01T23:26:50.780Z,11.76
2023-11-01T23:33:12.803Z,11.68
2023-11-01T23:39:32.828Z,11.6
2023-11-01T23:45:54.818Z,11.61
2023-11-01T23:52:14.803Z,11.58
2023-11-01T23:58:36.922Z,11.61
